createdAt,value
2019-05-15T00:04:00.000Z,7.1
2019-05-15T00:09:00.000Z,7.1
2019-05-15T00:14:00.000Z,7.1
2019-05-15T00:19:00.000Z,7.1
2019-05-15T00:24:00.000Z,7.1
2019-05-15T00:29:00.000Z,7.0
2019-05-15T00:34:00.000Z,7.0
2019-05-15T00:39:00.000Z,7.0
2019-05-15T00:44:00.000Z,7.0
2019-05-15T00:49:00.000Z,7.0
2019-05-15T00:54:00.000Z,7.0
2019-05-15T00:59:00.000Z,7.0
2019-05-15T01:04:00.000Z,7.0
2019-05-15T01:09:00.000Z,7.0
2019-05-15T01:14:00.000Z,7.0
2019-05-15T01:19:00.000Z,7.0
2019-05-15T01:24:00.000Z,7.0
2019-05-15T01:29:00.000Z,7.0
2019-05-15T01:34:00.000Z,7.0
2019-05-15T01:39:00.000Z,7.0
2019-05-15T01:44:00.000Z,7.0
2019-05-15T01:49:00.000Z,7.0
2019-05-15T01:54:00.000Z,7.0
2019-05-15T01:59:00.000Z,7.0
2019-05-15T02:05:00.000Z,7.0
2019-05-15T02:10:00.000Z,7.0
2019-05-15T02:15:00.000Z,7.0
2019-05-15T02:20:00.000Z,7.0
2019-05-15T02:25:00.000Z,7.0
2019-05-15T02:30:00.000Z,7.0
2019-05-15T02:35:00.000Z,7.0
2019-05-15T02:40:00.000Z,6.9
2019-05-15T02:45:00.000Z,6.9
2019-05-15T02:50:00.000Z,6.9
2019-05-15T02:55:00.000Z,6.9
2019-05-15T03:00:00.000Z,6.9
2019-05-15T03:05:00.000Z,7.0
2019-05-15T03:10:00.000Z,7.0
2019-05-15T03:15:00.000Z,7.0
2019-05-15T03:21:00.000Z,7.0
2019-05-15T03:26:00.000Z,7.0
2019-05-15T03:31:00.000Z,7.0
2019-05-15T03:36:00.000Z,7.0
2019-05-15T03:41:00.000Z,7.0
2019-05-15T03:46:00.000Z,7.0
2019-05-15T03:51:00.000Z,7.0
2019-05-15T03:56:00.000Z,7.0
2019-05-15T04:02:00.000Z,7.1
2019-05-15T04:07:00.000Z,7.1
2019-05-15T04:12:00.000Z,7.1
2019-05-15T04:17:00.000Z,7.1
2019-05-15T04:22:00.000Z,7.1
2019-05-15T04:27:00.000Z,7.1
2019-05-15T04:32:00.000Z,7.1
2019-05-15T04:37:00.000Z,7.0
2019-05-15T04:42:00.000Z,6.9
2019-05-15T04:47:00.000Z,6.9
2019-05-15T04:52:00.000Z,6.8
2019-05-15T04:57:00.000Z,6.8
2019-05-15T05:02:00.000Z,6.8
2019-05-15T05:07:00.000Z,6.8
2019-05-15T05:12:00.000Z,6.8
2019-05-15T05:17:00.000Z,6.8
2019-05-15T05:22:00.000Z,6.8
2019-05-15T05:27:00.000Z,6.9
2019-05-15T05:32:00.000Z,7.0
2019-05-15T05:37:00.000Z,7.0
2019-05-15T05:42:00.000Z,7.0
2019-05-15T05:47:00.000Z,7.1
2019-05-15T05:52:00.000Z,7.1
2019-05-15T05:57:00.000Z,7.1
2019-05-15T06:02:00.000Z,7.1
2019-05-15T06:07:00.000Z,7.1
2019-05-15T06:12:00.000Z,7.1
2019-05-15T06:17:00.000Z,7.2
2019-05-15T06:22:00.000Z,7.2
2019-05-15T06:27:00.000Z,7.2
2019-05-15T06:32:00.000Z,7.2
2019-05-15T06:38:00.000Z,7.2
2019-05-15T06:43:00.000Z,7.3
2019-05-15T06:48:00.000Z,7.3
2019-05-15T06:53:00.000Z,7.3
2019-05-15T06:58:00.000Z,7.4
2019-05-15T07:03:00.000Z,7.4
2019-05-15T07:08:00.000Z,7.4
2019-05-15T07:13:00.000Z,7.4
2019-05-15T07:18:00.000Z,7.4
2019-05-15T07:23:00.000Z,7.5
2019-05-15T07:28:00.000Z,7.5
2019-05-15T07:33:00.000Z,7.6
2019-05-15T07:38:00.000Z,7.6
2019-05-15T07:43:00.000Z,7.7
2019-05-15T07:48:00.000Z,7.8
2019-05-15T07:53:00.000Z,7.9
2019-05-15T07:58:00.000Z,8.0
2019-05-15T08:03:00.000Z,8.0
2019-05-15T08:09:00.000Z,8.1
2019-05-15T08:14:00.000Z,8.2
2019-05-15T08:19:00.000Z,8.3
2019-05-15T08:24:00.000Z,8.3
2019-05-15T08:29:00.000Z,8.3
2019-05-15T08:34:00.000Z,8.3
2019-05-15T08:39:00.000Z,8.3
2019-05-15T08:44:00.000Z,8.3
2019-05-15T08:49:00.000Z,8.4
2019-05-15T08:54:00.000Z,8.4
2019-05-15T08:59:00.000Z,8.4
2019-05-15T09:04:00.000Z,8.3
2019-05-15T09:09:00.000Z,8.4
2019-05-15T09:14:00.000Z,8.5
2019-05-15T09:19:00.000Z,8.6
2019-05-15T09:24:00.000Z,8.6
2019-05-15T09:29:00.000Z,8.6
2019-05-15T09:34:00.000Z,8.7
2019-05-15T09:39:00.000Z,8.6
2019-05-15T09:44:00.000Z,8.6
2019-05-15T09:49:00.000Z,8.6
2019-05-15T09:55:00.000Z,8.6
2019-05-15T10:00:00.000Z,8.5
2019-05-15T10:05:00.000Z,8.5
2019-05-15T10:10:00.000Z,8.5
2019-05-15T10:15:00.000Z,8.5
2019-05-15T10:20:00.000Z,8.4
2019-05-15T10:25:00.000Z,8.4
2019-05-15T10:30:00.000Z,8.4
2019-05-15T10:35:00.000Z,8.5
2019-05-15T10:40:00.000Z,8.4
2019-05-15T10:45:00.000Z,8.4
2019-05-15T10:50:00.000Z,8.4
2019-05-15T10:55:00.000Z,8.4
2019-05-15T11:00:00.000Z,8.3
2019-05-15T11:05:00.000Z,8.4
2019-05-15T11:10:00.000Z,8.4
2019-05-15T11:15:00.000Z,8.4
2019-05-15T11:20:00.000Z,8.3
2019-05-15T11:25:00.000Z,8.3
2019-05-15T11:30:00.000Z,8.3
2019-05-15T11:35:00.000Z,8.3
2019-05-15T11:41:00.000Z,8.3
2019-05-15T11:46:00.000Z,8.2
2019-05-15T11:51:00.000Z,8.2
2019-05-15T11:56:00.000Z,8.2
2019-05-15T12:01:00.000Z,8.2
2019-05-15T12:06:00.000Z,8.2
2019-05-15T12:11:00.000Z,8.2
2019-05-15T12:16:00.000Z,8.2
2019-05-15T12:21:00.000Z,8.1
2019-05-15T12:26:00.000Z,8.1
2019-05-15T12:31:00.000Z,8.1
2019-05-15T12:36:00.000Z,8.0
2019-05-15T13:01:00.000Z,7.9
2019-05-15T13:07:00.000Z,7.9
2019-05-15T13:12:00.000Z,7.9
2019-05-15T13:17:00.000Z,7.8
2019-05-15T13:22:00.000Z,7.7
2019-05-15T13:27:00.000Z,7.7
2019-05-15T13:32:00.000Z,7.7
2019-05-15T13:37:00.000Z,7.6
2019-05-15T13:42:00.000Z,7.5
2019-05-15T13:47:00.000Z,7.5
2019-05-15T13:52:00.000Z,7.6
2019-05-15T13:57:00.000Z,7.6
2019-05-15T14:02:00.000Z,7.6
2019-05-15T14:07:00.000Z,7.6
2019-05-15T14:12:00.000Z,7.6
2019-05-15T14:17:00.000Z,7.5
2019-05-15T14:22:00.000Z,7.5
2019-05-15T14:27:00.000Z,7.5
2019-05-15T14:32:00.000Z,7.4
2019-05-15T14:38:00.000Z,7.4
2019-05-15T14:43:00.000Z,7.4
2019-05-15T14:48:00.000Z,7.4
2019-05-15T14:53:00.000Z,7.4
2019-05-15T14:58:00.000Z,7.4
2019-05-15T15:03:00.000Z,7.5
2019-05-15T15:08:00.000Z,7.5
2019-05-15T15:13:00.000Z,7.6
2019-05-15T15:18:00.000Z,7.5
2019-05-15T15:23:00.000Z,7.5
2019-05-15T15:28:00.000Z,7.4
2019-05-15T15:33:00.000Z,7.4
2019-05-15T15:38:00.000Z,7.4
2019-05-15T15:43:00.000Z,7.3
2019-05-15T15:48:00.000Z,7.4
2019-05-15T15:53:00.000Z,7.3
2019-05-15T15:58:00.000Z,7.3
2019-05-15T16:03:00.000Z,7.2
2019-05-15T16:08:00.000Z,7.2
2019-05-15T16:13:00.000Z,7.2
2019-05-15T16:18:00.000Z,7.2
2019-05-15T16:23:00.000Z,7.2
2019-05-15T16:29:00.000Z,7.1
2019-05-15T16:34:00.000Z,7.1
2019-05-15T16:39:00.000Z,7.0
2019-05-15T16:44:00.000Z,6.9
2019-05-15T16:49:00.000Z,6.9
2019-05-15T16:54:00.000Z,6.9
2019-05-15T16:59:00.000Z,6.9
2019-05-15T17:04:00.000Z,6.8
2019-05-15T17:09:00.000Z,6.8
2019-05-15T17:14:00.000Z,6.8
2019-05-15T17:19:00.000Z,6.8
2019-05-15T17:24:00.000Z,6.8
2019-05-15T17:29:00.000Z,6.8
2019-05-15T17:34:00.000Z,6.8
2019-05-15T17:39:00.000Z,6.8
2019-05-15T17:44:00.000Z,6.8
2019-05-15T17:49:00.000Z,6.8
2019-05-15T17:54:00.000Z,6.7
2019-05-15T17:59:00.000Z,6.7
2019-05-15T18:04:00.000Z,6.7
2019-05-15T18:09:00.000Z,6.7
2019-05-15T18:14:00.000Z,6.7
2019-05-15T18:19:00.000Z,6.7
2019-05-15T18:24:00.000Z,6.7
2019-05-15T18:29:00.000Z,6.6
2019-05-15T18:35:00.000Z,6.6
2019-05-15T18:40:00.000Z,6.6
2019-05-15T18:45:00.000Z,6.6
2019-05-15T18:50:00.000Z,6.6
2019-05-15T18:55:00.000Z,6.6
2019-05-15T19:00:00.000Z,6.6
2019-05-15T19:05:00.000Z,6.6
2019-05-15T19:10:00.000Z,6.6
2019-05-15T19:15:00.000Z,6.6
2019-05-15T19:20:00.000Z,6.6
2019-05-15T19:25:00.000Z,6.5
2019-05-15T19:30:00.000Z,6.5
2019-05-15T19:35:00.000Z,6.5
2019-05-15T19:40:00.000Z,6.5
2019-05-15T19:45:00.000Z,6.5
2019-05-15T19:50:00.000Z,6.4
2019-05-15T19:55:00.000Z,6.4
2019-05-15T20:00:00.000Z,6.4
2019-05-15T20:05:00.000Z,6.4
2019-05-15T20:10:00.000Z,6.4
2019-05-15T20:15:00.000Z,6.3
2019-05-15T20:20:00.000Z,6.3
2019-05-15T20:25:00.000Z,6.3
2019-05-15T20:30:00.000Z,6.3
2019-05-15T20:35:00.000Z,6.3
2019-05-15T20:40:00.000Z,6.3
2019-05-15T20:45:00.000Z,6.3
2019-05-15T20:50:00.000Z,6.3
2019-05-15T20:55:00.000Z,6.3
2019-05-15T21:00:00.000Z,6.3
2019-05-15T21:05:00.000Z,6.4
2019-05-15T21:10:00.000Z,6.4
2019-05-15T21:15:00.000Z,6.4
2019-05-15T21:20:00.000Z,6.5
2019-05-15T21:25:00.000Z,6.5
2019-05-15T21:30:00.000Z,6.5
2019-05-15T21:35:00.000Z,6.5
2019-05-15T21:40:00.000Z,6.4
2019-05-15T21:45:00.000Z,6.4
2019-05-15T21:50:00.000Z,6.4
2019-05-15T21:55:00.000Z,6.4
2019-05-15T22:00:00.000Z,6.4
2019-05-15T22:05:00.000Z,6.3
2019-05-15T22:10:00.000Z,6.3
2019-05-15T22:15:00.000Z,6.3
2019-05-15T22:20:00.000Z,6.3
2019-05-15T22:26:00.000Z,6.3
2019-05-15T22:31:00.000Z,6.3
2019-05-15T22:36:00.000Z,6.3
2019-05-15T22:41:00.000Z,6.3
2019-05-15T22:46:00.000Z,6.3
2019-05-15T22:51:00.000Z,6.2
2019-05-15T22:56:00.000Z,6.2
2019-05-15T23:01:00.000Z,6.2
2019-05-15T23:06:00.000Z,6.2
2019-05-15T23:11:00.000Z,6.2
2019-05-15T23:16:00.000Z,6.2
2019-05-15T23:21:00.000Z,6.2
2019-05-15T23:26:00.000Z,6.2
2019-05-15T23:31:00.000Z,6.2
2019-05-15T23:36:00.000Z,6.2
2019-05-15T23:41:00.000Z,6.2
2019-05-15T23:46:00.000Z,6.2
2019-05-15T23:51:00.000Z,6.2
2019-05-15T23:56:00.000Z,6.2
